sensor_id;sensor_type;location;lat;lon;timestamp;P1;durP1;ratioP1;P2;durP2;ratioP2
19804;SDS011;10062;51.052;13.756;2022-11-27T00:00:47;24.57;;;9.00;;
19804;SDS011;10062;51.052;13.756;2022-11-27T00:03:19;20.43;;;8.93;;
19804;SDS011;10062;51.052;13.756;2022-11-27T00:05:52;20.17;;;8.43;;
19804;SDS011;10062;51.052;13.756;2022-11-27T00:08:25;18.77;;;8.43;;
19804;SDS011;10062;51.052;13.756;2022-11-27T00:11:02;20.90;;;9.60;;
19804;SDS011;10062;51.052;13.756;2022-11-27T00:13:37;21.63;;;9.13;;
19804;SDS011;10062;51.052;13.756;2022-11-27T00:16:09;19.37;;;8.57;;
19804;SDS011;10062;51.052;13.756;2022-11-27T00:18:42;18.27;;;9.23;;
19804;SDS011;10062;51.052;13.756;2022-11-27T00:21:15;18.27;;;8.90;;
19804;SDS011;10062;51.052;13.756;2022-11-27T00:23:48;24.17;;;9.20;;
19804;SDS011;10062;51.052;13.756;2022-11-27T00:26:20;14.53;;;7.77;;
19804;SDS011;10062;51.052;13.756;2022-11-27T00:28:53;20.57;;;7.73;;
19804;SDS011;10062;51.052;13.756;2022-11-27T00:31:27;15.13;;;7.17;;
19804;SDS011;10062;51.052;13.756;2022-11-27T00:34:00;16.87;;;7.50;;
19804;SDS011;10062;51.052;13.756;2022-11-27T00:36:33;14.33;;;6.80;;
19804;SDS011;10062;51.052;13.756;2022-11-27T00:39:05;16.93;;;6.77;;
19804;SDS011;10062;51.052;13.756;2022-11-27T00:41:37;17.53;;;6.73;;
19804;SDS011;10062;51.052;13.756;2022-11-27T00:44:11;17.40;;;6.33;;
19804;SDS011;10062;51.052;13.756;2022-11-27T00:46:43;13.83;;;7.40;;
19804;SDS011;10062;51.052;13.756;2022-11-27T00:49:15;19.20;;;7.93;;
19804;SDS011;10062;51.052;13.756;2022-11-27T00:51:47;17.80;;;7.10;;
19804;SDS011;10062;51.052;13.756;2022-11-27T00:54:18;20.97;;;7.20;;
19804;SDS011;10062;51.052;13.756;2022-11-27T00:56:50;18.47;;;6.60;;
19804;SDS011;10062;51.052;13.756;2022-11-27T00:59:23;18.07;;;6.40;;
19804;SDS011;10062;51.052;13.756;2022-11-27T01:01:55;18.10;;;7.10;;
19804;SDS011;10062;51.052;13.756;2022-11-27T01:04:27;11.87;;;6.73;;
19804;SDS011;10062;51.052;13.756;2022-11-27T01:06:59;18.00;;;6.63;;
19804;SDS011;10062;51.052;13.756;2022-11-27T01:09:31;16.57;;;7.10;;
19804;SDS011;10062;51.052;13.756;2022-11-27T01:12:03;10.67;;;5.73;;
19804;SDS011;10062;51.052;13.756;2022-11-27T01:14:37;17.37;;;5.60;;
19804;SDS011;10062;51.052;13.756;2022-11-27T01:17:09;14.27;;;6.40;;
19804;SDS011;10062;51.052;13.756;2022-11-27T01:19:40;20.70;;;6.73;;
19804;SDS011;10062;51.052;13.756;2022-11-27T01:22:12;17.57;;;6.17;;
19804;SDS011;10062;51.052;13.756;2022-11-27T01:24:44;18.07;;;6.30;;
19804;SDS011;10062;51.052;13.756;2022-11-27T01:27:16;13.90;;;5.93;;
19804;SDS011;10062;51.052;13.756;2022-11-27T01:29:49;14.63;;;6.53;;
19804;SDS011;10062;51.052;13.756;2022-11-27T01:32:21;12.70;;;6.43;;
19804;SDS011;10062;51.052;13.756;2022-11-27T01:34:53;14.30;;;6.17;;
19804;SDS011;10062;51.052;13.756;2022-11-27T01:37:25;16.50;;;6.00;;
19804;SDS011;10062;51.052;13.756;2022-11-27T01:39:56;12.50;;;5.93;;
19804;SDS011;10062;51.052;13.756;2022-11-27T01:42:28;17.97;;;7.10;;
19804;SDS011;10062;51.052;13.756;2022-11-27T01:45:01;16.80;;;7.67;;
19804;SDS011;10062;51.052;13.756;2022-11-27T01:47:36;12.60;;;5.67;;
19804;SDS011;10062;51.052;13.756;2022-11-27T01:50:18;18.47;;;7.10;;
19804;SDS011;10062;51.052;13.756;2022-11-27T01:52:53;22.20;;;6.80;;
19804;SDS011;10062;51.052;13.756;2022-11-27T01:55:29;16.53;;;6.70;;
19804;SDS011;10062;51.052;13.756;2022-11-27T01:58:04;15.93;;;7.67;;
19804;SDS011;10062;51.052;13.756;2022-11-27T02:00:40;13.43;;;7.17;;
19804;SDS011;10062;51.052;13.756;2022-11-27T02:03:12;14.90;;;7.33;;
19804;SDS011;10062;51.052;13.756;2022-11-27T02:05:45;13.97;;;7.07;;
19804;SDS011;10062;51.052;13.756;2022-11-27T02:08:17;16.63;;;7.07;;
19804;SDS011;10062;51.052;13.756;2022-11-27T02:10:49;14.27;;;6.80;;
19804;SDS011;10062;51.052;13.756;2022-11-27T02:13:25;21.87;;;8.80;;
19804;SDS011;10062;51.052;13.756;2022-11-27T02:16:04;17.47;;;8.37;;
19804;SDS011;10062;51.052;13.756;2022-11-27T02:18:42;18.23;;;8.07;;
19804;SDS011;10062;51.052;13.756;2022-11-27T02:21:23;20.30;;;9.10;;
19804;SDS011;10062;51.052;13.756;2022-11-27T02:24:11;17.93;;;9.60;;
19804;SDS011;10062;51.052;13.756;2022-11-27T02:30:14;17.43;;;8.17;;
19804;SDS011;10062;51.052;13.756;2022-11-27T02:32:48;27.37;;;9.23;;
19804;SDS011;10062;51.052;13.756;2022-11-27T02:35:25;17.43;;;9.13;;
19804;SDS011;10062;51.052;13.756;2022-11-27T02:38:00;19.10;;;9.07;;
19804;SDS011;10062;51.052;13.756;2022-11-27T02:40:37;22.50;;;9.10;;
19804;SDS011;10062;51.052;13.756;2022-11-27T02:43:15;19.07;;;8.33;;
19804;SDS011;10062;51.052;13.756;2022-11-27T02:45:52;20.53;;;9.13;;
19804;SDS011;10062;51.052;13.756;2022-11-27T02:48:26;20.73;;;8.40;;
19804;SDS011;10062;51.052;13.756;2022-11-27T02:51:01;17.20;;;9.43;;
19804;SDS011;10062;51.052;13.756;2022-11-27T02:53:35;25.70;;;9.73;;
19804;SDS011;10062;51.052;13.756;2022-11-27T02:56:10;16.90;;;8.17;;
19804;SDS011;10062;51.052;13.756;2022-11-27T02:58:46;18.67;;;8.70;;
19804;SDS011;10062;51.052;13.756;2022-11-27T03:01:22;21.67;;;9.80;;
19804;SDS011;10062;51.052;13.756;2022-11-27T03:03:57;18.47;;;8.97;;
19804;SDS011;10062;51.052;13.756;2022-11-27T03:06:35;16.20;;;8.80;;
19804;SDS011;10062;51.052;13.756;2022-11-27T03:09:11;21.20;;;8.90;;
19804;SDS011;10062;51.052;13.756;2022-11-27T03:11:46;14.33;;;8.67;;
19804;SDS011;10062;51.052;13.756;2022-11-27T03:14:18;21.80;;;8.50;;
19804;SDS011;10062;51.052;13.756;2022-11-27T03:16:57;18.33;;;7.83;;
19804;SDS011;10062;51.052;13.756;2022-11-27T03:19:36;15.43;;;8.53;;
19804;SDS011;10062;51.052;13.756;2022-11-27T03:22:13;17.30;;;9.23;;
19804;SDS011;10062;51.052;13.756;2022-11-27T03:24:45;17.40;;;8.10;;
19804;SDS011;10062;51.052;13.756;2022-11-27T03:27:25;17.70;;;7.73;;
19804;SDS011;10062;51.052;13.756;2022-11-27T03:30:02;24.57;;;9.67;;
19804;SDS011;10062;51.052;13.756;2022-11-27T03:32:37;20.90;;;9.10;;
19804;SDS011;10062;51.052;13.756;2022-11-27T03:35:10;16.93;;;9.03;;
19804;SDS011;10062;51.052;13.756;2022-11-27T03:37:44;21.20;;;9.57;;
19804;SDS011;10062;51.052;13.756;2022-11-27T03:40:16;20.87;;;9.73;;
19804;SDS011;10062;51.052;13.756;2022-11-27T03:42:51;21.80;;;9.17;;
19804;SDS011;10062;51.052;13.756;2022-11-27T03:45:29;17.63;;;9.37;;
19804;SDS011;10062;51.052;13.756;2022-11-27T03:48:08;19.20;;;8.60;;
19804;SDS011;10062;51.052;13.756;2022-11-27T03:50:50;15.67;;;8.23;;
19804;SDS011;10062;51.052;13.756;2022-11-27T03:53:32;15.47;;;8.27;;
19804;SDS011;10062;51.052;13.756;2022-11-27T03:56:15;18.33;;;9.10;;
19804;SDS011;10062;51.052;13.756;2022-11-27T03:58:58;18.40;;;7.77;;
19804;SDS011;10062;51.052;13.756;2022-11-27T04:01:35;17.30;;;8.63;;
19804;SDS011;10062;51.052;13.756;2022-11-27T04:04:08;22.13;;;9.57;;
19804;SDS011;10062;51.052;13.756;2022-11-27T04:06:40;15.30;;;8.00;;
19804;SDS011;10062;51.052;13.756;2022-11-27T04:09:12;18.63;;;8.83;;
19804;SDS011;10062;51.052;13.756;2022-11-27T04:11:44;18.93;;;8.67;;
19804;SDS011;10062;51.052;13.756;2022-11-27T04:14:16;17.70;;;8.57;;
19804;SDS011;10062;51.052;13.756;2022-11-27T04:16:47;20.67;;;8.70;;
19804;SDS011;10062;51.052;13.756;2022-11-27T04:19:21;16.33;;;8.77;;
19804;SDS011;10062;51.052;13.756;2022-11-27T04:21:52;17.33;;;9.27;;
19804;SDS011;10062;51.052;13.756;2022-11-27T04:24:24;24.80;;;8.23;;
19804;SDS011;10062;51.052;13.756;2022-11-27T04:26:56;22.53;;;9.07;;
19804;SDS011;10062;51.052;13.756;2022-11-27T04:29:28;15.17;;;8.27;;
19804;SDS011;10062;51.052;13.756;2022-11-27T04:32:00;20.47;;;8.93;;
19804;SDS011;10062;51.052;13.756;2022-11-27T04:34:33;19.07;;;8.33;;
19804;SDS011;10062;51.052;13.756;2022-11-27T04:37:05;16.87;;;8.67;;
19804;SDS011;10062;51.052;13.756;2022-11-27T04:39:37;21.83;;;8.83;;
19804;SDS011;10062;51.052;13.756;2022-11-27T04:42:10;16.67;;;8.50;;
19804;SDS011;10062;51.052;13.756;2022-11-27T04:44:41;18.03;;;8.93;;
19804;SDS011;10062;51.052;13.756;2022-11-27T04:47:13;15.30;;;7.83;;
19804;SDS011;10062;51.052;13.756;2022-11-27T04:49:46;17.70;;;8.83;;
19804;SDS011;10062;51.052;13.756;2022-11-27T04:52:18;17.10;;;7.97;;
19804;SDS011;10062;51.052;13.756;2022-11-27T04:54:50;19.40;;;8.90;;
19804;SDS011;10062;51.052;13.756;2022-11-27T04:57:22;20.83;;;8.43;;
19804;SDS011;10062;51.052;13.756;2022-11-27T04:59:53;18.77;;;8.10;;
19804;SDS011;10062;51.052;13.756;2022-11-27T05:02:25;22.07;;;8.47;;
19804;SDS011;10062;51.052;13.756;2022-11-27T05:04:59;20.03;;;8.93;;
19804;SDS011;10062;51.052;13.756;2022-11-27T05:07:30;16.93;;;8.93;;
19804;SDS011;10062;51.052;13.756;2022-11-27T05:10:02;16.87;;;8.33;;
19804;SDS011;10062;51.052;13.756;2022-11-27T05:12:34;13.70;;;7.67;;
19804;SDS011;10062;51.052;13.756;2022-11-27T05:15:07;14.30;;;8.27;;
19804;SDS011;10062;51.052;13.756;2022-11-27T05:17:39;20.57;;;7.97;;
19804;SDS011;10062;51.052;13.756;2022-11-27T05:20:12;13.97;;;7.23;;
19804;SDS011;10062;51.052;13.756;2022-11-27T05:22:45;17.87;;;7.50;;
19804;SDS011;10062;51.052;13.756;2022-11-27T05:25:18;18.57;;;7.50;;
19804;SDS011;10062;51.052;13.756;2022-11-27T05:27:50;17.37;;;8.03;;
19804;SDS011;10062;51.052;13.756;2022-11-27T05:30:23;15.37;;;9.00;;
19804;SDS011;10062;51.052;13.756;2022-11-27T05:32:54;17.57;;;7.30;;
19804;SDS011;10062;51.052;13.756;2022-11-27T05:35:28;22.90;;;8.83;;
19804;SDS011;10062;51.052;13.756;2022-11-27T05:37:59;21.90;;;7.93;;
19804;SDS011;10062;51.052;13.756;2022-11-27T05:40:31;22.87;;;8.20;;
19804;SDS011;10062;51.052;13.756;2022-11-27T05:43:03;21.73;;;8.83;;
19804;SDS011;10062;51.052;13.756;2022-11-27T05:45:35;14.67;;;8.40;;
19804;SDS011;10062;51.052;13.756;2022-11-27T05:48:07;18.30;;;8.40;;
19804;SDS011;10062;51.052;13.756;2022-11-27T05:50:40;17.27;;;8.70;;
19804;SDS011;10062;51.052;13.756;2022-11-27T05:53:12;21.07;;;8.73;;
19804;SDS011;10062;51.052;13.756;2022-11-27T05:55:44;12.73;;;7.10;;
19804;SDS011;10062;51.052;13.756;2022-11-27T05:58:16;14.73;;;8.10;;
19804;SDS011;10062;51.052;13.756;2022-11-27T06:00:48;16.77;;;7.57;;
19804;SDS011;10062;51.052;13.756;2022-11-27T06:03:19;10.17;;;6.63;;
19804;SDS011;10062;51.052;13.756;2022-11-27T06:05:52;18.00;;;8.07;;
19804;SDS011;10062;51.052;13.756;2022-11-27T06:08:24;18.90;;;7.47;;
19804;SDS011;10062;51.052;13.756;2022-11-27T06:10:56;15.90;;;7.20;;
19804;SDS011;10062;51.052;13.756;2022-11-27T06:13:28;14.30;;;6.63;;
19804;SDS011;10062;51.052;13.756;2022-11-27T06:16:02;13.07;;;5.83;;
19804;SDS011;10062;51.052;13.756;2022-11-27T06:18:36;9.23;;;5.03;;
19804;SDS011;10062;51.052;13.756;2022-11-27T06:21:10;11.30;;;5.63;;
19804;SDS011;10062;51.052;13.756;2022-11-27T06:23:43;8.90;;;5.53;;
19804;SDS011;10062;51.052;13.756;2022-11-27T06:26:16;12.70;;;5.70;;
19804;SDS011;10062;51.052;13.756;2022-11-27T06:28:49;12.53;;;5.30;;
19804;SDS011;10062;51.052;13.756;2022-11-27T06:31:23;12.60;;;5.80;;
19804;SDS011;10062;51.052;13.756;2022-11-27T06:33:56;10.53;;;4.93;;
19804;SDS011;10062;51.052;13.756;2022-11-27T06:36:31;14.33;;;5.87;;
19804;SDS011;10062;51.052;13.756;2022-11-27T06:39:04;10.10;;;5.57;;
19804;SDS011;10062;51.052;13.756;2022-11-27T06:41:36;10.60;;;6.03;;
19804;SDS011;10062;51.052;13.756;2022-11-27T06:44:08;15.43;;;6.17;;
19804;SDS011;10062;51.052;13.756;2022-11-27T06:46:40;9.27;;;4.33;;
19804;SDS011;10062;51.052;13.756;2022-11-27T06:49:12;11.63;;;4.20;;
19804;SDS011;10062;51.052;13.756;2022-11-27T06:51:47;22.63;;;7.37;;
19804;SDS011;10062;51.052;13.756;2022-11-27T06:54:19;29.70;;;9.37;;
19804;SDS011;10062;51.052;13.756;2022-11-27T06:56:51;32.17;;;8.77;;
19804;SDS011;10062;51.052;13.756;2022-11-27T06:59:23;16.57;;;6.60;;
19804;SDS011;10062;51.052;13.756;2022-11-27T07:01:55;27.00;;;8.90;;
19804;SDS011;10062;51.052;13.756;2022-11-27T07:04:27;27.53;;;8.27;;
19804;SDS011;10062;51.052;13.756;2022-11-27T07:07:00;22.97;;;8.43;;
19804;SDS011;10062;51.052;13.756;2022-11-27T07:09:32;32.13;;;8.53;;
19804;SDS011;10062;51.052;13.756;2022-11-27T07:12:04;18.00;;;7.37;;
19804;SDS011;10062;51.052;13.756;2022-11-27T07:14:37;31.70;;;9.63;;
19804;SDS011;10062;51.052;13.756;2022-11-27T07:17:09;21.50;;;8.80;;
19804;SDS011;10062;51.052;13.756;2022-11-27T07:19:41;24.07;;;8.47;;
19804;SDS011;10062;51.052;13.756;2022-11-27T07:22:14;32.67;;;9.23;;
19804;SDS011;10062;51.052;13.756;2022-11-27T07:24:46;39.80;;;8.93;;
19804;SDS011;10062;51.052;13.756;2022-11-27T07:27:17;19.70;;;9.17;;
19804;SDS011;10062;51.052;13.756;2022-11-27T07:29:49;13.43;;;7.37;;
19804;SDS011;10062;51.052;13.756;2022-11-27T07:32:21;41.87;;;18.27;;
19804;SDS011;10062;51.052;13.756;2022-11-27T07:34:53;32.17;;;10.00;;
19804;SDS011;10062;51.052;13.756;2022-11-27T07:37:28;25.93;;;9.50;;
19804;SDS011;10062;51.052;13.756;2022-11-27T07:40:00;23.40;;;8.83;;
19804;SDS011;10062;51.052;13.756;2022-11-27T07:42:32;16.33;;;6.83;;
19804;SDS011;10062;51.052;13.756;2022-11-27T07:45:04;13.40;;;5.67;;
19804;SDS011;10062;51.052;13.756;2022-11-27T07:47:37;16.10;;;7.57;;
19804;SDS011;10062;51.052;13.756;2022-11-27T07:50:09;28.90;;;8.70;;
19804;SDS011;10062;51.052;13.756;2022-11-27T07:52:43;30.33;;;8.87;;
19804;SDS011;10062;51.052;13.756;2022-11-27T07:55:15;24.13;;;8.43;;
19804;SDS011;10062;51.052;13.756;2022-11-27T07:57:47;19.67;;;7.57;;
19804;SDS011;10062;51.052;13.756;2022-11-27T08:00:19;15.17;;;6.97;;
19804;SDS011;10062;51.052;13.756;2022-11-27T08:02:51;19.40;;;8.50;;
19804;SDS011;10062;51.052;13.756;2022-11-27T08:05:23;19.07;;;8.30;;
19804;SDS011;10062;51.052;13.756;2022-11-27T08:07:58;19.50;;;8.63;;
19804;SDS011;10062;51.052;13.756;2022-11-27T08:10:30;25.53;;;8.90;;
19804;SDS011;10062;51.052;13.756;2022-11-27T08:13:04;24.77;;;9.53;;
19804;SDS011;10062;51.052;13.756;2022-11-27T08:15:36;51.57;;;12.23;;
19804;SDS011;10062;51.052;13.756;2022-11-27T08:18:08;28.97;;;11.33;;
19804;SDS011;10062;51.052;13.756;2022-11-27T08:20:40;44.13;;;15.63;;
19804;SDS011;10062;51.052;13.756;2022-11-27T08:23:13;28.27;;;11.57;;
19804;SDS011;10062;51.052;13.756;2022-11-27T08:25:45;24.43;;;10.77;;
19804;SDS011;10062;51.052;13.756;2022-11-27T08:28:17;23.20;;;11.77;;
19804;SDS011;10062;51.052;13.756;2022-11-27T08:30:54;21.17;;;10.57;;
19804;SDS011;10062;51.052;13.756;2022-11-27T08:33:26;22.77;;;12.00;;
19804;SDS011;10062;51.052;13.756;2022-11-27T08:35:58;26.17;;;9.93;;
19804;SDS011;10062;51.052;13.756;2022-11-27T08:38:31;24.80;;;11.13;;
19804;SDS011;10062;51.052;13.756;2022-11-27T08:41:04;32.60;;;12.40;;
19804;SDS011;10062;51.052;13.756;2022-11-27T08:43:37;26.73;;;10.93;;
19804;SDS011;10062;51.052;13.756;2022-11-27T08:46:09;22.37;;;10.73;;
19804;SDS011;10062;51.052;13.756;2022-11-27T08:48:41;23.67;;;11.53;;
19804;SDS011;10062;51.052;13.756;2022-11-27T08:51:14;26.60;;;12.00;;
19804;SDS011;10062;51.052;13.756;2022-11-27T08:53:47;27.73;;;12.40;;
19804;SDS011;10062;51.052;13.756;2022-11-27T08:56:20;23.20;;;10.63;;
19804;SDS011;10062;51.052;13.756;2022-11-27T08:58:52;25.53;;;13.67;;
19804;SDS011;10062;51.052;13.756;2022-11-27T09:01:25;24.83;;;11.23;;
19804;SDS011;10062;51.052;13.756;2022-11-27T09:03:58;33.13;;;13.60;;
19804;SDS011;10062;51.052;13.756;2022-11-27T09:06:30;32.00;;;14.13;;
19804;SDS011;10062;51.052;13.756;2022-11-27T09:09:05;28.63;;;14.30;;
19804;SDS011;10062;51.052;13.756;2022-11-27T09:11:37;36.33;;;16.00;;
19804;SDS011;10062;51.052;13.756;2022-11-27T09:14:09;35.77;;;16.33;;
19804;SDS011;10062;51.052;13.756;2022-11-27T09:16:41;32.73;;;15.10;;
19804;SDS011;10062;51.052;13.756;2022-11-27T09:19:13;32.13;;;14.90;;
19804;SDS011;10062;51.052;13.756;2022-11-27T09:21:47;34.83;;;14.80;;
19804;SDS011;10062;51.052;13.756;2022-11-27T09:24:21;34.60;;;16.97;;
19804;SDS011;10062;51.052;13.756;2022-11-27T09:26:53;32.30;;;14.83;;
19804;SDS011;10062;51.052;13.756;2022-11-27T09:29:25;32.17;;;14.37;;
19804;SDS011;10062;51.052;13.756;2022-11-27T09:31:57;37.70;;;20.33;;
19804;SDS011;10062;51.052;13.756;2022-11-27T09:34:29;28.37;;;15.00;;
19804;SDS011;10062;51.052;13.756;2022-11-27T09:37:02;28.03;;;14.80;;
19804;SDS011;10062;51.052;13.756;2022-11-27T09:39:35;27.67;;;14.20;;
19804;SDS011;10062;51.052;13.756;2022-11-27T09:42:09;33.00;;;14.77;;
19804;SDS011;10062;51.052;13.756;2022-11-27T09:44:48;28.43;;;15.17;;
19804;SDS011;10062;51.052;13.756;2022-11-27T09:47:29;29.87;;;15.10;;
19804;SDS011;10062;51.052;13.756;2022-11-27T09:50:06;26.87;;;14.13;;
19804;SDS011;10062;51.052;13.756;2022-11-27T09:52:45;28.83;;;13.50;;
19804;SDS011;10062;51.052;13.756;2022-11-27T09:55:22;25.97;;;14.63;;
19804;SDS011;10062;51.052;13.756;2022-11-27T09:57:58;25.97;;;14.50;;
19804;SDS011;10062;51.052;13.756;2022-11-27T10:00:35;27.80;;;13.90;;
19804;SDS011;10062;51.052;13.756;2022-11-27T10:03:09;27.63;;;14.57;;
19804;SDS011;10062;51.052;13.756;2022-11-27T10:05:44;28.80;;;14.17;;
19804;SDS011;10062;51.052;13.756;2022-11-27T10:08:24;26.40;;;13.30;;
19804;SDS011;10062;51.052;13.756;2022-11-27T10:11:08;20.20;;;11.93;;
19804;SDS011;10062;51.052;13.756;2022-11-27T10:13:49;22.93;;;12.30;;
19804;SDS011;10062;51.052;13.756;2022-11-27T10:16:31;23.90;;;12.93;;
19804;SDS011;10062;51.052;13.756;2022-11-27T10:19:10;26.00;;;12.73;;
19804;SDS011;10062;51.052;13.756;2022-11-27T10:21:51;20.40;;;11.70;;
19804;SDS011;10062;51.052;13.756;2022-11-27T10:24:30;24.13;;;12.27;;
19804;SDS011;10062;51.052;13.756;2022-11-27T10:27:16;26.23;;;11.63;;
19804;SDS011;10062;51.052;13.756;2022-11-27T10:29:53;16.07;;;10.03;;
19804;SDS011;10062;51.052;13.756;2022-11-27T10:32:26;19.43;;;9.80;;
19804;SDS011;10062;51.052;13.756;2022-11-27T10:35:01;20.07;;;10.60;;
19804;SDS011;10062;51.052;13.756;2022-11-27T10:37:36;17.87;;;11.20;;
19804;SDS011;10062;51.052;13.756;2022-11-27T10:40:17;16.33;;;8.93;;
19804;SDS011;10062;51.052;13.756;2022-11-27T10:42:56;20.70;;;10.90;;
19804;SDS011;10062;51.052;13.756;2022-11-27T10:45:37;23.57;;;9.83;;
19804;SDS011;10062;51.052;13.756;2022-11-27T10:48:13;17.97;;;11.03;;
19804;SDS011;10062;51.052;13.756;2022-11-27T10:50:48;18.07;;;11.17;;
19804;SDS011;10062;51.052;13.756;2022-11-27T10:53:24;24.30;;;11.83;;
19804;SDS011;10062;51.052;13.756;2022-11-27T10:56:12;15.27;;;8.63;;
19804;SDS011;10062;51.052;13.756;2022-11-27T10:59:09;9.80;;;5.30;;
19804;SDS011;10062;51.052;13.756;2022-11-27T11:01:46;15.20;;;5.50;;
19804;SDS011;10062;51.052;13.756;2022-11-27T11:04:20;9.67;;;5.47;;
19804;SDS011;10062;51.052;13.756;2022-11-27T11:06:53;11.03;;;4.57;;
19804;SDS011;10062;51.052;13.756;2022-11-27T11:09:25;10.03;;;5.40;;
19804;SDS011;10062;51.052;13.756;2022-11-27T11:12:05;8.10;;;4.43;;
19804;SDS011;10062;51.052;13.756;2022-11-27T11:14:39;10.87;;;5.23;;
19804;SDS011;10062;51.052;13.756;2022-11-27T11:17:23;12.43;;;4.80;;
19804;SDS011;10062;51.052;13.756;2022-11-27T11:19:57;9.77;;;4.43;;
19804;SDS011;10062;51.052;13.756;2022-11-27T11:22:29;9.13;;;4.57;;
19804;SDS011;10062;51.052;13.756;2022-11-27T11:25:04;8.73;;;4.57;;
19804;SDS011;10062;51.052;13.756;2022-11-27T11:27:46;8.73;;;4.53;;
19804;SDS011;10062;51.052;13.756;2022-11-27T11:30:22;8.93;;;3.93;;
19804;SDS011;10062;51.052;13.756;2022-11-27T11:32:58;12.17;;;5.33;;
19804;SDS011;10062;51.052;13.756;2022-11-27T11:35:33;9.97;;;4.53;;
19804;SDS011;10062;51.052;13.756;2022-11-27T11:38:12;8.87;;;4.70;;
19804;SDS011;10062;51.052;13.756;2022-11-27T11:40:55;9.97;;;4.60;;
19804;SDS011;10062;51.052;13.756;2022-11-27T11:43:29;12.03;;;4.33;;
19804;SDS011;10062;51.052;13.756;2022-11-27T11:46:14;8.90;;;4.63;;
19804;SDS011;10062;51.052;13.756;2022-11-27T11:48:51;11.10;;;4.00;;
19804;SDS011;10062;51.052;13.756;2022-11-27T11:51:36;8.97;;;4.07;;
19804;SDS011;10062;51.052;13.756;2022-11-27T11:54:25;9.40;;;4.33;;
19804;SDS011;10062;51.052;13.756;2022-11-27T11:57:10;9.33;;;4.17;;
19804;SDS011;10062;51.052;13.756;2022-11-27T12:00:06;9.80;;;4.43;;
19804;SDS011;10062;51.052;13.756;2022-11-27T12:02:47;10.50;;;4.80;;
19804;SDS011;10062;51.052;13.756;2022-11-27T12:05:40;10.17;;;4.43;;
19804;SDS011;10062;51.052;13.756;2022-11-27T12:08:32;10.57;;;4.30;;
19804;SDS011;10062;51.052;13.756;2022-11-27T12:11:13;10.93;;;4.30;;
19804;SDS011;10062;51.052;13.756;2022-11-27T12:13:53;8.43;;;4.37;;
19804;SDS011;10062;51.052;13.756;2022-11-27T12:16:38;10.13;;;4.47;;
19804;SDS011;10062;51.052;13.756;2022-11-27T12:19:34;9.80;;;4.50;;
19804;SDS011;10062;51.052;13.756;2022-11-27T12:22:25;8.83;;;4.30;;
19804;SDS011;10062;51.052;13.756;2022-11-27T12:25:16;8.07;;;3.90;;
19804;SDS011;10062;51.052;13.756;2022-11-27T12:28:01;6.67;;;3.43;;
19804;SDS011;10062;51.052;13.756;2022-11-27T12:30:43;9.27;;;3.73;;
19804;SDS011;10062;51.052;13.756;2022-11-27T12:33:28;10.80;;;4.00;;
19804;SDS011;10062;51.052;13.756;2022-11-27T12:36:16;9.23;;;3.90;;
19804;SDS011;10062;51.052;13.756;2022-11-27T12:39:00;6.77;;;3.13;;
19804;SDS011;10062;51.052;13.756;2022-11-27T12:41:45;7.93;;;3.90;;
19804;SDS011;10062;51.052;13.756;2022-11-27T12:44:46;7.93;;;5.00;;
19804;SDS011;10062;51.052;13.756;2022-11-27T12:47:24;7.80;;;4.00;;
19804;SDS011;10062;51.052;13.756;2022-11-27T12:50:02;13.40;;;4.23;;
19804;SDS011;10062;51.052;13.756;2022-11-27T12:52:41;8.60;;;3.90;;
19804;SDS011;10062;51.052;13.756;2022-11-27T12:55:20;7.20;;;4.37;;
19804;SDS011;10062;51.052;13.756;2022-11-27T12:57:56;7.13;;;4.33;;
19804;SDS011;10062;51.052;13.756;2022-11-27T13:00:34;9.07;;;3.53;;
19804;SDS011;10062;51.052;13.756;2022-11-27T13:03:12;10.33;;;4.63;;
19804;SDS011;10062;51.052;13.756;2022-11-27T13:05:50;9.70;;;4.00;;
19804;SDS011;10062;51.052;13.756;2022-11-27T13:08:28;11.33;;;4.00;;
19804;SDS011;10062;51.052;13.756;2022-11-27T13:11:16;9.83;;;4.00;;
19804;SDS011;10062;51.052;13.756;2022-11-27T13:13:51;10.40;;;4.80;;
19804;SDS011;10062;51.052;13.756;2022-11-27T13:16:29;7.77;;;4.07;;
19804;SDS011;10062;51.052;13.756;2022-11-27T13:19:09;9.60;;;4.10;;
19804;SDS011;10062;51.052;13.756;2022-11-27T13:21:46;10.43;;;4.20;;
19804;SDS011;10062;51.052;13.756;2022-11-27T13:24:20;7.63;;;4.00;;
19804;SDS011;10062;51.052;13.756;2022-11-27T13:26:58;8.30;;;4.03;;
19804;SDS011;10062;51.052;13.756;2022-11-27T13:29:36;14.43;;;6.23;;
19804;SDS011;10062;51.052;13.756;2022-11-27T13:32:17;11.70;;;6.00;;
19804;SDS011;10062;51.052;13.756;2022-11-27T13:34:52;9.03;;;4.33;;
19804;SDS011;10062;51.052;13.756;2022-11-27T13:37:27;14.15;;;6.93;;
19804;SDS011;10062;51.052;13.756;2022-11-27T13:40:04;8.20;;;4.70;;
19804;SDS011;10062;51.052;13.756;2022-11-27T13:42:47;9.03;;;4.37;;
19804;SDS011;10062;51.052;13.756;2022-11-27T13:45:23;9.50;;;4.03;;
19804;SDS011;10062;51.052;13.756;2022-11-27T13:48:00;8.30;;;3.77;;
19804;SDS011;10062;51.052;13.756;2022-11-27T13:50:41;10.47;;;3.67;;
19804;SDS011;10062;51.052;13.756;2022-11-27T13:53:14;12.73;;;5.33;;
19804;SDS011;10062;51.052;13.756;2022-11-27T13:55:52;11.63;;;4.57;;
19804;SDS011;10062;51.052;13.756;2022-11-27T13:58:27;8.80;;;4.00;;
19804;SDS011;10062;51.052;13.756;2022-11-27T14:01:14;10.03;;;4.53;;
19804;SDS011;10062;51.052;13.756;2022-11-27T14:03:47;10.67;;;4.43;;
19804;SDS011;10062;51.052;13.756;2022-11-27T14:06:21;11.87;;;5.00;;
19804;SDS011;10062;51.052;13.756;2022-11-27T14:08:56;11.20;;;4.30;;
19804;SDS011;10062;51.052;13.756;2022-11-27T14:11:31;11.63;;;4.57;;
19804;SDS011;10062;51.052;13.756;2022-11-27T14:14:11;12.80;;;4.30;;
19804;SDS011;10062;51.052;13.756;2022-11-27T14:16:54;9.33;;;3.63;;
19804;SDS011;10062;51.052;13.756;2022-11-27T14:19:29;8.83;;;4.67;;
19804;SDS011;10062;51.052;13.756;2022-11-27T14:22:12;11.07;;;4.77;;
19804;SDS011;10062;51.052;13.756;2022-11-27T14:24:44;9.53;;;4.37;;
19804;SDS011;10062;51.052;13.756;2022-11-27T14:27:27;8.80;;;4.60;;
19804;SDS011;10062;51.052;13.756;2022-11-27T14:30:13;9.53;;;5.17;;
19804;SDS011;10062;51.052;13.756;2022-11-27T14:32:53;8.93;;;4.73;;
19804;SDS011;10062;51.052;13.756;2022-11-27T14:35:26;10.60;;;4.57;;
19804;SDS011;10062;51.052;13.756;2022-11-27T14:38:08;10.53;;;4.43;;
19804;SDS011;10062;51.052;13.756;2022-11-27T14:40:41;8.23;;;5.07;;
19804;SDS011;10062;51.052;13.756;2022-11-27T14:43:15;14.53;;;4.20;;
19804;SDS011;10062;51.052;13.756;2022-11-27T14:45:48;11.10;;;4.00;;
19804;SDS011;10062;51.052;13.756;2022-11-27T14:48:22;9.97;;;4.70;;
19804;SDS011;10062;51.052;13.756;2022-11-27T14:50:55;8.83;;;4.97;;
19804;SDS011;10062;51.052;13.756;2022-11-27T14:53:28;18.53;;;8.20;;
19804;SDS011;10062;51.052;13.756;2022-11-27T14:56:00;15.60;;;8.50;;
19804;SDS011;10062;51.052;13.756;2022-11-27T14:58:33;16.23;;;8.63;;
19804;SDS011;10062;51.052;13.756;2022-11-27T15:01:06;14.40;;;5.03;;
19804;SDS011;10062;51.052;13.756;2022-11-27T15:03:38;13.87;;;6.23;;
19804;SDS011;10062;51.052;13.756;2022-11-27T15:06:14;14.27;;;6.77;;
19804;SDS011;10062;51.052;13.756;2022-11-27T15:08:49;11.70;;;6.27;;
19804;SDS011;10062;51.052;13.756;2022-11-27T15:11:21;12.63;;;5.77;;